Time;durP1;ratioP1;P1;durP2;ratioP2;P2;SDS_P1;SDS_P2;PMS_P1;PMS_P2;Temp;Humidity;BMP_temperature;BMP_pressure;BME280_temperature;BME280_humidity;BME280_pressure;Samples;Min_cycle;Max_cycle;Signal;HPM_P1;HPM_P2
2023/10/11 00:01:10;;;;;;;;;;;16.80;99.90;;;;;;5109420;28;19916;-77
2023/10/11 00:03:35;;;;;;;;;;;16.80;99.90;;;;;;5094306;28;20016;-77
2023/10/11 00:06:04;;;;;;;;;;;16.80;99.90;;;;;;5108583;28;19920;-77
2023/10/11 00:08:39;;;;;;;;;;;16.80;99.90;;;;;;5109719;28;19938;-76
2023/10/11 00:11:07;;;;;;;;;;;16.90;99.90;;;;;;5109002;28;19922;-77
2023/10/11 00:13:35;;;;;;;;;;;16.90;99.90;;;;;;5111653;28;19922;-77
2023/10/11 00:16:08;;;;;;;;;;;16.80;99.90;;;;;;5092577;28;19963;-77
2023/10/11 00:18:35;;;;;;;;;;;16.90;99.90;;;;;;5076991;28;19916;-77
2023/10/11 00:21:09;;;;;;;;;;;16.80;99.90;;;;;;5091836;28;19919;-77
2023/10/11 00:23:36;;;;;;;;;;;16.70;99.90;;;;;;5093442;28;19920;-77
2023/10/11 00:26:02;;;;;;;;;;;16.80;99.90;;;;;;5098425;28;19927;-77
2023/10/11 00:28:31;;;;;;;;;;;16.80;99.90;;;;;;5107026;28;19999;-77
2023/10/11 00:30:59;;;;;;;;;;;16.80;99.90;;;;;;5108818;28;19972;-77
2023/10/11 00:33:26;;;;;;;;;;;16.80;99.90;;;;;;5107868;28;20033;-77
2023/10/11 00:35:52;;;;;;;;;;;16.80;99.90;;;;;;5101555;28;19923;-77
2023/10/11 00:38:18;;;;;;;;;;;16.90;99.90;;;;;;5105233;28;19924;-77
2023/10/11 00:41:00;;;;;;;;;;;16.90;99.90;;;;;;5093645;28;20002;-77
2023/10/11 00:43:36;;;;;;;;;;;16.90;99.90;;;;;;5096906;28;19916;-77
2023/10/11 00:46:05;;;;;;;;;;;16.90;99.90;;;;;;5094091;28;20375;-77
2023/10/11 00:48:31;;;;;;;;;;;16.90;99.90;;;;;;5093912;28;20389;-77
2023/10/11 00:50:57;;;;;;;;;;;16.80;99.90;;;;;;5089906;28;19937;-77
2023/10/11 00:53:26;;;;;;;;;;;16.80;99.90;;;;;;5098773;28;19919;-77
2023/10/11 00:55:55;;;;;;;;;;;16.80;99.90;;;;;;5090271;28;19998;-77
2023/10/11 00:58:22;;;;;;;;;;;16.80;99.90;;;;;;5087937;28;19981;-77
2023/10/11 01:00:49;;;;;;;;;;;16.80;99.90;;;;;;5103417;28;19931;-77
2023/10/11 01:03:14;;;;;;;;;;;16.80;99.90;;;;;;5103575;28;19927;-77
2023/10/11 01:05:44;;;;;;;;;;;16.90;99.90;;;;;;5108734;28;19915;-77
2023/10/11 01:08:10;;;;;;;;;;;16.80;99.90;;;;;;5105874;28;19923;-77
2023/10/11 01:10:37;;;;;;;;;;;16.80;99.90;;;;;;5108655;28;19968;-77
2023/10/11 01:13:02;;;;;;;;;;;16.80;99.90;;;;;;5103618;28;19920;-77
2023/10/11 01:15:28;;;;;;;;;;;16.90;99.90;;;;;;5110448;28;19926;-77
2023/10/11 01:17:54;;;;;;;;;;;16.90;99.90;;;;;;5100561;28;19968;-77
2023/10/11 01:20:19;;;;;;;;;;;16.90;99.90;;;;;;5098162;28;19928;-77
2023/10/11 01:22:45;;;;;;;;;;;16.80;99.90;;;;;;5107428;28;19923;-77
2023/10/11 01:25:20;;;;;;;;;;;16.90;99.90;;;;;;5106851;28;19916;-77
2023/10/11 01:27:47;;;;;;;;;;;16.90;99.90;;;;;;5106904;28;19931;-77
2023/10/11 01:30:13;;;;;;;;;;;16.80;99.90;;;;;;5076721;28;19915;-77
2023/10/11 01:32:41;;;;;;;;;;;16.80;99.90;;;;;;5089288;28;19923;-77
2023/10/11 01:35:19;;;;;;;;;;;16.80;99.90;;;;;;5109694;28;19967;-77
2023/10/11 01:37:45;;;;;;;;;;;16.70;99.90;;;;;;5103134;28;19925;-77
2023/10/11 01:40:20;;;;;;;;;;;16.70;99.90;;;;;;5106592;28;19920;-77
2023/10/11 01:42:51;;;;;;;;;;;16.80;99.90;;;;;;5099526;28;19955;-77
2023/10/11 01:45:18;;;;;;;;;;;16.80;99.90;;;;;;5109523;28;19926;-77
2023/10/11 01:47:46;;;;;;;;;;;16.80;99.90;;;;;;5108157;28;19916;-77
2023/10/11 01:50:13;;;;;;;;;;;16.80;99.90;;;;;;5098163;28;19926;-77
2023/10/11 01:52:39;;;;;;;;;;;16.80;99.90;;;;;;5080463;28;20002;-77
2023/10/11 01:55:05;;;;;;;;;;;16.80;99.90;;;;;;5109584;28;20011;-77
2023/10/11 01:57:31;;;;;;;;;;;16.90;99.90;;;;;;5092641;28;19923;-77
2023/10/11 01:59:57;;;;;;;;;;;16.70;99.90;;;;;;5093046;28;19928;-77
2023/10/11 02:02:27;;;;;;;;;;;16.80;99.90;;;;;;5091845;28;19923;-77
2023/10/11 02:04:57;;;;;;;;;;;16.70;99.90;;;;;;5092673;28;19942;-77
2023/10/11 02:07:23;;;;;;;;;;;16.70;99.90;;;;;;5089341;28;19916;-74
2023/10/11 02:09:48;;;;;;;;;;;16.80;99.90;;;;;;5092509;28;19920;-74
2023/10/11 02:12:17;;;;;;;;;;;16.80;99.90;;;;;;5088988;28;19916;-74
2023/10/11 02:14:44;;;;;;;;;;;16.80;99.90;;;;;;5073801;28;19919;-75
2023/10/11 02:17:13;;;;;;;;;;;16.80;99.90;;;;;;5096627;28;19923;-75
2023/10/11 02:19:38;;;;;;;;;;;16.80;99.90;;;;;;5076208;28;20263;-74
2023/10/11 02:22:04;;;;;;;;;;;16.80;99.90;;;;;;5094312;28;19924;-76
2023/10/11 02:24:30;;;;;;;;;;;16.80;99.90;;;;;;5076817;28;19935;-77
2023/10/11 02:26:55;;;;;;;;;;;16.70;99.90;;;;;;5097369;28;19994;-75
2023/10/11 02:29:21;;;;;;;;;;;16.70;99.90;;;;;;5100901;28;19915;-74
2023/10/11 02:31:50;;;;;;;;;;;16.80;99.90;;;;;;5097771;28;19920;-74
2023/10/11 02:34:16;;;;;;;;;;;16.70;99.90;;;;;;5096743;28;19919;-74
2023/10/11 02:36:45;;;;;;;;;;;16.70;99.90;;;;;;5094802;28;19916;-74
2023/10/11 02:39:17;;;;;;;;;;;16.70;99.90;;;;;;5095822;28;20368;-74
2023/10/11 02:41:47;;;;;;;;;;;16.70;99.90;;;;;;5096368;28;20278;-74
2023/10/11 02:44:13;;;;;;;;;;;16.60;99.90;;;;;;5093620;28;19919;-74
2023/10/11 02:46:43;;;;;;;;;;;16.60;99.90;;;;;;5091916;28;20038;-74
2023/10/11 02:49:31;;;;;;;;;;;16.50;99.90;;;;;;5100295;28;20656;-74
2023/10/11 02:51:57;;;;;;;;;;;16.60;99.90;;;;;;5094697;28;19926;-74
2023/10/11 02:54:34;;;;;;;;;;;16.50;99.90;;;;;;5102237;28;19916;-75
2023/10/11 02:57:00;;;;;;;;;;;16.40;99.90;;;;;;5098671;28;20374;-74
2023/10/11 02:59:25;;;;;;;;;;;16.40;99.90;;;;;;5105488;28;19959;-75
2023/10/11 03:02:00;;;;;;;;;;;16.50;99.90;;;;;;5085424;28;19926;-75
2023/10/11 03:04:32;;;;;;;;;;;16.50;99.90;;;;;;5112007;28;20000;-75
2023/10/11 03:07:00;;;;;;;;;;;16.50;99.90;;;;;;5091226;28;20396;-74
2023/10/11 03:09:27;;;;;;;;;;;16.50;99.90;;;;;;5094867;28;20401;-75
2023/10/11 03:11:55;;;;;;;;;;;16.40;99.90;;;;;;5100195;28;19923;-74
2023/10/11 03:14:21;;;;;;;;;;;16.50;99.90;;;;;;5090628;28;19920;-75
2023/10/11 03:16:55;;;;;;;;;;;16.40;99.90;;;;;;5109671;28;20409;-75
2023/10/11 03:19:22;;;;;;;;;;;16.40;99.90;;;;;;5103255;28;19927;-75
2023/10/11 03:21:53;;;;;;;;;;;16.40;99.90;;;;;;5079175;28;19923;-75
2023/10/11 03:24:19;;;;;;;;;;;16.50;99.90;;;;;;5095065;28;20018;-74
2023/10/11 03:26:48;;;;;;;;;;;16.40;99.90;;;;;;5099086;28;19990;-74
2023/10/11 03:29:17;;;;;;;;;;;16.50;99.90;;;;;;5109950;28;20366;-74
2023/10/11 03:31:43;;;;;;;;;;;16.50;99.90;;;;;;5092056;28;19966;-74
2023/10/11 03:34:12;;;;;;;;;;;16.40;99.90;;;;;;5092863;28;19963;-74
2023/10/11 03:36:49;;;;;;;;;;;16.50;99.90;;;;;;5110150;28;19926;-74
2023/10/11 03:39:41;;;;;;;;;;;16.40;99.90;;;;;;5099928;28;19923;-74
2023/10/11 03:44:40;;;;;;;;;;;16.50;99.90;;;;;;5098490;28;19941;-74
2023/10/11 03:47:06;;;;;;;;;;;16.50;99.90;;;;;;5109605;28;19919;-74
2023/10/11 03:49:37;;;;;;;;;;;16.40;99.90;;;;;;5077538;28;19919;-74
2023/10/11 03:52:04;;;;;;;;;;;16.40;99.90;;;;;;5079157;28;20046;-74
2023/10/11 03:54:30;;;;;;;;;;;16.40;99.90;;;;;;5079827;28;19920;-74
2023/10/11 03:56:56;;;;;;;;;;;16.40;99.90;;;;;;5091745;28;19946;-80
2023/10/11 03:59:28;;;;;;;;;;;16.50;99.90;;;;;;5086430;28;19924;-74
2023/10/11 04:02:00;;;;;;;;;;;16.40;99.90;;;;;;5107793;28;19915;-73
2023/10/11 04:04:25;;;;;;;;;;;16.40;99.90;;;;;;5098139;28;19922;-73
2023/10/11 04:06:51;;;;;;;;;;;16.50;99.90;;;;;;5099131;28;20271;-73
2023/10/11 04:12:03;;;;;;;;;;;16.30;99.90;;;;;;5078896;28;19931;-73
2023/10/11 04:14:39;;;;;;;;;;;16.40;99.90;;;;;;5093054;28;19969;-73
2023/10/11 04:17:47;;;;;;;;;;;16.40;99.90;;;;;;5098516;27;20141;-73
2023/10/11 04:20:29;;;;;;;;;;;16.40;99.90;;;;;;5088657;28;19924;-73
2023/10/11 04:23:09;;;;;;;;;;;16.40;99.90;;;;;;5099662;27;20027;-73
2023/10/11 04:25:38;;;;;;;;;;;16.30;99.90;;;;;;5105243;28;19920;-72
2023/10/11 04:28:05;;;;;;;;;;;16.30;99.90;;;;;;5096812;28;19931;-73
2023/10/11 04:30:46;;;;;;;;;;;16.30;99.90;;;;;;5085381;28;19993;-74
2023/10/11 04:33:13;;;;;;;;;;;16.40;99.90;;;;;;5098817;28;20397;-75
2023/10/11 04:35:55;;;;;;;;;;;16.30;99.90;;;;;;5093555;28;19920;-76
2023/10/11 04:38:21;;;;;;;;;;;16.30;99.90;;;;;;5097664;28;20002;-75
2023/10/11 04:43:23;;;;;;;;;;;16.30;99.90;;;;;;5098591;28;20341;-76
2023/10/11 04:45:51;;;;;;;;;;;16.40;99.90;;;;;;5080028;28;20282;-76
2023/10/11 04:48:41;;;;;;;;;;;16.30;99.90;;;;;;5096952;28;19923;-75
2023/10/11 04:51:21;;;;;;;;;;;16.40;99.90;;;;;;5077125;28;19923;-75
2023/10/11 04:56:52;;;;;;;;;;;16.40;99.90;;;;;;5094692;28;20017;-75
2023/10/11 04:59:20;;;;;;;;;;;16.40;99.90;;;;;;5104611;28;19935;-75
2023/10/11 05:04:14;;;;;;;;;;;16.30;99.90;;;;;;5097334;28;20484;-75
2023/10/11 05:06:41;;;;;;;;;;;16.40;99.90;;;;;;5089975;28;19920;-75
2023/10/11 05:09:14;;;;;;;;;;;16.40;99.90;;;;;;5091077;28;19936;-75
2023/10/11 05:11:50;;;;;;;;;;;16.40;99.90;;;;;;5093656;28;19919;-75
2023/10/11 05:16:59;;;;;;;;;;;16.50;99.90;;;;;;5097416;28;19923;-75
2023/10/11 05:19:28;;;;;;;;;;;16.40;99.90;;;;;;5107342;28;19955;-75
2023/10/11 05:21:54;;;;;;;;;;;16.50;99.90;;;;;;5071717;28;19919;-75
2023/10/11 05:27:12;;;;;;;;;;;16.50;99.90;;;;;;5089058;28;20339;-76
2023/10/11 05:30:05;;;;;;;;;;;16.50;99.90;;;;;;5091428;28;19920;-75
2023/10/11 05:32:41;;;;;;;;;;;16.50;99.90;;;;;;5089645;28;19916;-75
2023/10/11 05:51:21;;;;;;;;;;;16.50;99.90;;;;;;5093490;28;20310;-75
2023/10/11 05:53:49;;;;;;;;;;;16.60;99.90;;;;;;5099502;28;19920;-74
2023/10/11 05:56:20;;;;;;;;;;;16.60;99.90;;;;;;5096877;28;19916;-77
2023/10/11 05:58:50;;;;;;;;;;;16.60;99.90;;;;;;5088621;28;20358;-77
2023/10/11 06:01:17;;;;;;;;;;;16.60;99.90;;;;;;5095557;28;19969;-77
2023/10/11 06:03:43;;;;;;;;;;;16.60;99.90;;;;;;5109138;28;19919;-78
2023/10/11 06:06:23;;;;;;;;;;;16.70;99.90;;;;;;5114052;28;19926;-78
2023/10/11 06:08:52;;;;;;;;;;;16.70;99.90;;;;;;5091961;28;19999;-78
2023/10/11 06:11:19;;;;;;;;;;;16.70;99.90;;;;;;5105762;28;19955;-78
2023/10/11 06:13:48;;;;;;;;;;;16.70;99.90;;;;;;5108262;28;19923;-78
2023/10/11 06:16:14;;;;;;;;;;;16.70;99.90;;;;;;5083099;28;19958;-77
2023/10/11 06:18:42;;;;;;;;;;;16.70;99.90;;;;;;5113866;28;19928;-78
2023/10/11 06:21:18;;;;;;;;;;;16.80;99.90;;;;;;5113473;28;19930;-78
2023/10/11 06:23:45;;;;;;;;;;;16.80;99.90;;;;;;5113637;28;20002;-78
2023/10/11 06:26:29;;;;;;;;;;;16.80;99.90;;;;;;5113652;28;19919;-78
2023/10/11 06:29:03;;;;;;;;;;;16.80;99.90;;;;;;5113381;28;19920;-78
2023/10/11 06:31:39;;;;;;;;;;;16.90;99.90;;;;;;5113670;28;19916;-78
2023/10/11 06:34:25;;;;;;;;;;;16.90;99.90;;;;;;5113665;28;20286;-78
2023/10/11 06:36:51;;;;;;;;;;;16.80;99.90;;;;;;5091303;28;20359;-77
2023/10/11 06:42:13;;;;;;;;;;;16.80;99.90;;;;;;5104209;28;20010;-78
2023/10/11 06:44:39;;;;;;;;;;;16.90;99.90;;;;;;5112263;28;19919;-80
2023/10/11 06:47:05;;;;;;;;;;;16.90;99.90;;;;;;5100878;28;19963;-79
2023/10/11 06:49:32;;;;;;;;;;;16.90;99.90;;;;;;5100329;28;19927;-79
2023/10/11 06:52:01;;;;;;;;;;;17.00;99.90;;;;;;5084058;28;20474;-79
2023/10/11 06:54:32;;;;;;;;;;;17.00;99.90;;;;;;5081374;28;19927;-79
2023/10/11 06:56:58;;;;;;;;;;;17.00;99.90;;;;;;5115573;27;19958;-79
2023/10/11 06:59:23;;;;;;;;;;;17.10;99.90;;;;;;5094367;28;19988;-79
2023/10/11 07:01:49;;;;;;;;;;;17.10;99.90;;;;;;5108438;28;19935;-80
2023/10/11 07:04:18;;;;;;;;;;;17.00;99.90;;;;;;5104527;28;19916;-78
2023/10/11 07:06:46;;;;;;;;;;;17.10;99.90;;;;;;5086455;28;19916;-78
2023/10/11 07:09:20;;;;;;;;;;;17.10;99.90;;;;;;5082302;28;20371;-78
2023/10/11 07:12:18;;;;;;;;;;;17.20;99.90;;;;;;5101246;28;19927;-78
2023/10/11 07:14:41;;;;;;;;;;;17.20;99.90;;;;;;5113653;28;19915;-77
2023/10/11 07:17:08;;;;;;;;;;;17.20;99.90;;;;;;5110538;28;19939;-78
2023/10/11 07:19:36;;;;;;;;;;;17.30;99.90;;;;;;5082651;28;19920;-78
2023/10/11 07:22:05;;;;;;;;;;;17.30;99.90;;;;;;5093299;28;19916;-78
2023/10/11 07:27:08;;;;;;;;;;;17.30;99.90;;;;;;5088894;28;20014;-78
2023/10/11 07:29:35;;;;;;;;;;;17.30;99.90;;;;;;5103906;28;19923;-79
2023/10/11 07:32:02;;;;;;;;;;;17.30;99.90;;;;;;5090241;28;20401;-78
2023/10/11 07:34:27;;;;;;;;;;;17.40;99.90;;;;;;5098575;28;19973;-78
2023/10/11 07:36:53;;;;;;;;;;;17.30;99.90;;;;;;5084568;28;19924;-78
2023/10/11 07:39:25;;;;;;;;;;;17.40;99.90;;;;;;5101403;28;19927;-77
2023/10/11 07:41:52;;;;;;;;;;;17.40;99.90;;;;;;5098396;28;20359;-78
2023/10/11 07:44:18;;;;;;;;;;;17.40;99.90;;;;;;5099710;28;19919;-78
2023/10/11 07:46:44;;;;;;;;;;;17.40;99.90;;;;;;5103314;28;19916;-78
2023/10/11 07:49:23;;;;;;;;;;;17.40;99.90;;;;;;5103517;28;19916;-77
2023/10/11 07:51:52;;;;;;;;;;;17.40;99.90;;;;;;5084393;28;19993;-78
2023/10/11 07:54:21;;;;;;;;;;;17.50;99.90;;;;;;5103117;28;19941;-77
2023/10/11 07:56:57;;;;;;;;;;;17.50;99.90;;;;;;5089145;28;19959;-77
2023/10/11 07:59:30;;;;;;;;;;;17.60;99.90;;;;;;5096768;28;20425;-78
2023/10/11 08:01:59;;;;;;;;;;;17.50;99.90;;;;;;5088530;28;19946;-78
2023/10/11 08:04:29;;;;;;;;;;;17.60;99.90;;;;;;5102646;28;19963;-78
2023/10/11 08:07:03;;;;;;;;;;;17.60;99.90;;;;;;5099025;28;20462;-78
2023/10/11 08:09:34;;;;;;;;;;;17.60;99.90;;;;;;5083966;28;19965;-78
2023/10/11 08:12:00;;;;;;;;;;;17.60;99.90;;;;;;5111922;28;19916;-78
2023/10/11 08:14:28;;;;;;;;;;;17.60;99.90;;;;;;5106831;28;19919;-77
2023/10/11 08:16:56;;;;;;;;;;;17.60;99.90;;;;;;5128213;27;19954;-77
2023/10/11 08:19:22;;;;;;;;;;;17.50;99.90;;;;;;5104978;28;19959;-77
2023/10/11 08:21:54;;;;;;;;;;;17.50;99.90;;;;;;5101121;27;20018;-78
2023/10/11 08:24:27;;;;;;;;;;;17.50;99.90;;;;;;5105023;28;19930;-78
2023/10/11 08:27:08;;;;;;;;;;;17.60;99.90;;;;;;5108310;27;19926;-79
2023/10/11 08:29:35;;;;;;;;;;;17.60;99.90;;;;;;5091747;27;19915;-78
2023/10/11 08:32:06;;;;;;;;;;;17.60;99.90;;;;;;5103597;27;19923;-77
2023/10/11 08:34:32;;;;;;;;;;;17.60;99.90;;;;;;5102339;27;20001;-81
2023/10/11 08:36:57;;;;;;;;;;;17.60;99.90;;;;;;5074390;28;19920;-77
2023/10/11 08:39:35;;;;;;;;;;;17.70;99.90;;;;;;5096206;27;19964;-78
2023/10/11 08:42:09;;;;;;;;;;;17.70;99.90;;;;;;5121259;27;19919;-78
2023/10/11 08:44:35;;;;;;;;;;;17.60;99.90;;;;;;5114233;27;19916;-78
2023/10/11 08:47:04;;;;;;;;;;;17.70;99.90;;;;;;5114518;27;19922;-78
2023/10/11 08:49:29;;;;;;;;;;;17.60;99.90;;;;;;5104082;28;19923;-78
2023/10/11 08:52:01;;;;;;;;;;;17.60;99.90;;;;;;5095955;28;20518;-79
2023/10/11 08:54:31;;;;;;;;;;;17.50;99.90;;;;;;5074522;28;19916;-78
2023/10/11 08:56:58;;;;;;;;;;;17.60;99.90;;;;;;5094228;28;19926;-79
2023/10/11 08:59:30;;;;;;;;;;;17.60;99.90;;;;;;5094532;28;20346;-78
2023/10/11 09:01:59;;;;;;;;;;;17.50;99.90;;;;;;5111668;28;20279;-78
2023/10/11 09:04:28;;;;;;;;;;;17.50;99.90;;;;;;5111629;28;19923;-78
2023/10/11 09:07:00;;;;;;;;;;;17.40;99.90;;;;;;5094802;28;20010;-78
2023/10/11 09:09:41;;;;;;;;;;;17.40;99.90;;;;;;5111473;28;19931;-79
2023/10/11 09:12:26;;;;;;;;;;;17.40;99.90;;;;;;5111521;28;20427;-78
2023/10/11 09:14:58;;;;;;;;;;;17.40;99.90;;;;;;5097989;28;20706;-78
2023/10/11 09:17:25;;;;;;;;;;;17.40;99.90;;;;;;5096924;28;19998;-79
2023/10/11 09:19:51;;;;;;;;;;;17.50;99.90;;;;;;5111517;28;19923;-78
2023/10/11 09:22:20;;;;;;;;;;;17.50;99.90;;;;;;5111480;28;19923;-78
2023/10/11 09:24:45;;;;;;;;;;;17.60;99.90;;;;;;5114790;28;19919;-78
2023/10/11 09:29:43;;;;;;;;;;;17.60;99.90;;;;;;5115769;28;19923;-78
2023/10/11 09:32:09;;;;;;;;;;;17.70;99.90;;;;;;5115698;28;20263;-78
2023/10/11 09:34:41;;;;;;;;;;;17.70;99.90;;;;;;5081641;28;19916;-78
2023/10/11 09:37:13;;;;;;;;;;;17.80;99.90;;;;;;5115622;28;20219;-79
2023/10/11 09:39:39;;;;;;;;;;;17.80;99.90;;;;;;5115175;28;19966;-78
2023/10/11 09:42:08;;;;;;;;;;;17.90;99.90;;;;;;5098044;28;19923;-78
2023/10/11 09:44:37;;;;;;;;;;;17.90;99.90;;;;;;5114882;28;19965;-78
2023/10/11 09:47:19;;;;;;;;;;;18.00;99.90;;;;;;5091373;28;19963;-79
2023/10/11 09:49:46;;;;;;;;;;;18.00;99.90;;;;;;5107715;28;19916;-79
2023/10/11 09:52:23;;;;;;;;;;;18.00;99.90;;;;;;5097853;28;19920;-79
2023/10/11 09:54:50;;;;;;;;;;;18.00;99.90;;;;;;5120410;27;19916;-79
2023/10/11 09:57:29;;;;;;;;;;;18.00;99.90;;;;;;5107340;28;19968;-79
2023/10/11 09:59:59;;;;;;;;;;;18.00;99.90;;;;;;5090428;28;19919;-78
2023/10/11 10:02:30;;;;;;;;;;;18.00;99.90;;;;;;5096040;28;19916;-78
2023/10/11 10:04:57;;;;;;;;;;;18.00;99.90;;;;;;5096290;28;19933;-78
2023/10/11 10:07:33;;;;;;;;;;;18.10;99.90;;;;;;5105811;28;19968;-78
2023/10/11 10:10:02;;;;;;;;;;;18.10;99.90;;;;;;5107328;28;20271;-78
2023/10/11 10:12:40;;;;;;;;;;;18.20;99.90;;;;;;5114663;28;19920;-78
2023/10/11 10:15:14;;;;;;;;;;;18.30;99.90;;;;;;5104219;28;19995;-81
2023/10/11 10:18:00;;;;;;;;;;;18.30;99.90;;;;;;5111585;28;20041;-78
2023/10/11 10:20:33;;;;;;;;;;;18.40;99.90;;;;;;5105435;28;19919;-78
2023/10/11 10:23:29;;;;;;;;;;;18.40;99.90;;;;;;5097344;28;19922;-79
2023/10/11 10:26:07;;;;;;;;;;;18.50;99.90;;;;;;5087636;28;20336;-78
2023/10/11 10:28:34;;;;;;;;;;;18.50;99.90;;;;;;5093429;28;20358;-79
2023/10/11 10:31:20;;;;;;;;;;;18.50;99.90;;;;;;5094387;28;19916;-80
2023/10/11 10:33:50;;;;;;;;;;;18.50;99.90;;;;;;5104004;28;20020;-79
2023/10/11 10:36:22;;;;;;;;;;;18.50;99.90;;;;;;5104939;28;20367;-80
2023/10/11 10:39:30;;;;;;;;;;;18.50;99.90;;;;;;5107897;28;19919;-80
2023/10/11 10:42:15;;;;;;;;;;;18.70;99.90;;;;;;5113514;28;20018;-79
2023/10/11 10:44:51;;;;;;;;;;;18.70;99.90;;;;;;5113928;28;19985;-79
2023/10/11 10:47:21;;;;;;;;;;;18.90;99.90;;;;;;5113477;28;19964;-79
2023/10/11 10:49:50;;;;;;;;;;;19.20;99.90;;;;;;5096733;28;19915;-79
2023/10/11 10:52:17;;;;;;;;;;;19.30;99.90;;;;;;5104282;28;19920;-78
2023/10/11 10:55:01;;;;;;;;;;;19.30;99.90;;;;;;5108334;28;19927;-79
2023/10/11 10:57:27;;;;;;;;;;;19.30;99.90;;;;;;5113113;28;19943;-80
2023/10/11 10:59:54;;;;;;;;;;;19.50;99.90;;;;;;5112750;28;20374;-79
2023/10/11 11:02:20;;;;;;;;;;;19.60;99.90;;;;;;5113134;28;19927;-79
2023/10/11 11:04:46;;;;;;;;;;;19.60;99.90;;;;;;5096696;28;19920;-80
2023/10/11 11:07:25;;;;;;;;;;;19.50;99.90;;;;;;5113827;28;20014;-79
2023/10/11 11:09:57;;;;;;;;;;;19.40;99.90;;;;;;5113984;28;19916;-79
2023/10/11 11:12:27;;;;;;;;;;;19.50;99.90;;;;;;5113529;28;19919;-79
2023/10/11 11:14:58;;;;;;;;;;;19.40;99.90;;;;;;5096440;28;19920;-79
2023/10/11 11:17:23;;;;;;;;;;;19.40;99.90;;;;;;5099189;28;19927;-78
2023/10/11 11:22:46;;;;;;;;;;;19.20;99.90;;;;;;5113299;28;20378;-79
2023/10/11 11:25:18;;;;;;;;;;;19.20;99.90;;;;;;5112800;28;19919;-79
2023/10/11 11:27:44;;;;;;;;;;;19.20;99.90;;;;;;5084149;28;20263;-78
2023/10/11 11:30:33;;;;;;;;;;;19.20;99.90;;;;;;5113137;28;19923;-78
2023/10/11 11:33:13;;;;;;;;;;;19.10;99.90;;;;;;5101358;28;19916;-78
2023/10/11 11:35:54;;;;;;;;;;;19.10;99.90;;;;;;5112771;28;19915;-79
2023/10/11 11:38:22;;;;;;;;;;;19.20;99.90;;;;;;5113231;28;19927;-79
2023/10/11 11:40:51;;;;;;;;;;;19.20;99.90;;;;;;5112415;28;19927;-79
2023/10/11 11:43:17;;;;;;;;;;;19.30;99.90;;;;;;5112467;28;19920;-79
2023/10/11 11:45:45;;;;;;;;;;;19.20;99.90;;;;;;5095960;28;19943;-79
2023/10/11 11:48:11;;;;;;;;;;;19.30;99.90;;;;;;5112503;28;19919;-79
2023/10/11 11:50:38;;;;;;;;;;;19.40;99.90;;;;;;5112498;28;19916;-79
2023/10/11 11:53:04;;;;;;;;;;;19.40;99.90;;;;;;5097854;28;19927;-79
2023/10/11 11:55:32;;;;;;;;;;;19.50;99.90;;;;;;5095220;28;19916;-79
2023/10/11 11:57:58;;;;;;;;;;;19.40;99.90;;;;;;5095997;28;20295;-79
2023/10/11 12:02:51;;;;;;;;;;;19.50;99.90;;;;;;5093033;28;19968;-77
2023/10/11 12:05:17;;;;;;;;;;;19.70;99.90;;;;;;5111359;28;19920;-78
2023/10/11 12:07:43;;;;;;;;;;;19.90;99.90;;;;;;5101142;28;19920;-78
2023/10/11 12:10:23;;;;;;;;;;;20.10;99.90;;;;;;5097938;28;19919;-77
2023/10/11 12:12:53;;;;;;;;;;;20.40;99.90;;;;;;5094077;28;19916;-78
2023/10/11 12:15:19;;;;;;;;;;;20.50;99.90;;;;;;5111170;28;20384;-78
2023/10/11 12:17:49;;;;;;;;;;;20.40;99.90;;;;;;5092033;28;20339;-79
2023/10/11 12:20:15;;;;;;;;;;;20.20;99.90;;;;;;5110573;28;19924;-78
2023/10/11 12:22:44;;;;;;;;;;;20.10;99.90;;;;;;5103237;28;19924;-78
2023/10/11 12:25:10;;;;;;;;;;;20.00;99.90;;;;;;5105349;28;20002;-78
2023/10/11 12:27:40;;;;;;;;;;;19.80;99.90;;;;;;5104281;28;19932;-78
2023/10/11 12:30:19;;;;;;;;;;;19.70;99.90;;;;;;5110771;28;19959;-78
2023/10/11 12:32:52;;;;;;;;;;;19.60;99.90;;;;;;5111230;28;19915;-78
2023/10/11 12:35:23;;;;;;;;;;;19.40;99.90;;;;;;5110246;28;19922;-78
2023/10/11 12:37:49;;;;;;;;;;;19.30;99.90;;;;;;5111806;28;20278;-78
2023/10/11 12:40:22;;;;;;;;;;;19.30;99.90;;;;;;5111257;28;19927;-77
2023/10/11 12:42:48;;;;;;;;;;;19.30;99.90;;;;;;5111434;28;20378;-78
2023/10/11 12:45:17;;;;;;;;;;;19.30;99.90;;;;;;5094644;28;19915;-78
2023/10/11 12:47:43;;;;;;;;;;;19.30;99.90;;;;;;5111377;28;20259;-78
2023/10/11 12:50:08;;;;;;;;;;;19.30;99.90;;;;;;5094391;28;19916;-78
2023/10/11 12:52:37;;;;;;;;;;;19.30;99.90;;;;;;5098771;28;19916;-77
2023/10/11 12:55:06;;;;;;;;;;;19.40;99.90;;;;;;5095400;28;19919;-78
2023/10/11 12:57:32;;;;;;;;;;;19.40;99.90;;;;;;5111312;28;19916;-78
2023/10/11 12:59:58;;;;;;;;;;;19.50;99.90;;;;;;5110387;28;19930;-77
2023/10/11 13:02:33;;;;;;;;;;;19.50;99.90;;;;;;5094370;28;19919;-77
2023/10/11 13:04:59;;;;;;;;;;;19.50;99.90;;;;;;5110856;28;19916;-77
2023/10/11 13:07:26;;;;;;;;;;;19.50;99.90;;;;;;5093912;28;20014;-78
2023/10/11 13:09:54;;;;;;;;;;;19.40;99.90;;;;;;5110793;28;20405;-78
2023/10/11 13:12:20;;;;;;;;;;;19.40;99.90;;;;;;5111084;28;20002;-78
2023/10/11 13:14:45;;;;;;;;;;;19.20;99.90;;;;;;5081312;28;20006;-78
2023/10/11 13:17:15;;;;;;;;;;;19.20;99.90;;;;;;5109518;28;19925;-77
2023/10/11 13:19:43;;;;;;;;;;;19.10;99.90;;;;;;5110099;28;20264;-77
2023/10/11 13:22:09;;;;;;;;;;;19.10;99.90;;;;;;5110736;28;19916;-78
2023/10/11 13:24:35;;;;;;;;;;;19.20;99.90;;;;;;5093618;28;20377;-77
2023/10/11 13:27:03;;;;;;;;;;;19.20;99.90;;;;;;5110566;28;19938;-78
2023/10/11 13:29:29;;;;;;;;;;;19.20;99.90;;;;;;5102686;28;19996;-78
2023/10/11 13:31:56;;;;;;;;;;;19.20;99.90;;;;;;5111187;28;19920;-78
2023/10/11 13:34:29;;;;;;;;;;;19.20;99.90;;;;;;5111574;28;19916;-78
2023/10/11 13:36:58;;;;;;;;;;;19.10;99.90;;;;;;5111224;28;19998;-78
2023/10/11 13:39:27;;;;;;;;;;;19.00;99.90;;;;;;5094530;28;19969;-78
2023/10/11 13:41:53;;;;;;;;;;;18.90;99.90;;;;;;5111444;28;19970;-78
2023/10/11 13:44:21;;;;;;;;;;;18.80;99.90;;;;;;5093587;28;20290;-79
2023/10/11 13:46:55;;;;;;;;;;;18.60;99.90;;;;;;5101569;28;19920;-78
2023/10/11 13:49:24;;;;;;;;;;;18.50;99.90;;;;;;5111454;28;19915;-78
2023/10/11 13:51:54;;;;;;;;;;;18.40;99.90;;;;;;5105702;28;19939;-78
2023/10/11 13:54:34;;;;;;;;;;;18.40;99.90;;;;;;5103417;28;19920;-78
2023/10/11 13:57:00;;;;;;;;;;;18.40;99.90;;;;;;5111296;28;19919;-78
2023/10/11 13:59:28;;;;;;;;;;;18.40;99.90;;;;;;5111262;28;19911;-78
2023/10/11 14:10:01;;;;;;;;;;;18.60;99.90;;;;;;5096659;27;19991;-77
2023/10/11 14:12:33;;;;;;;;;;;18.60;99.90;;;;;;5115025;28;19924;-77
2023/10/11 14:14:59;;;;;;;;;;;18.70;99.90;;;;;;5098419;28;19923;-77
2023/10/11 14:17:25;;;;;;;;;;;18.60;99.90;;;;;;5114106;28;19916;-77
2023/10/11 14:19:54;;;;;;;;;;;18.70;99.90;;;;;;5080713;28;19915;-77
2023/10/11 14:22:21;;;;;;;;;;;18.80;99.90;;;;;;5097512;28;19924;-78
2023/10/11 14:24:51;;;;;;;;;;;18.70;99.90;;;;;;5114506;28;19978;-77
2023/10/11 14:27:17;;;;;;;;;;;18.80;99.90;;;;;;5114592;28;19916;-78
2023/10/11 14:29:47;;;;;;;;;;;18.80;99.90;;;;;;5097561;28;20286;-77
2023/10/11 14:32:14;;;;;;;;;;;18.80;99.90;;;;;;5114393;28;19922;-78
2023/10/11 14:34:40;;;;;;;;;;;18.80;99.90;;;;;;5114403;28;19925;-78
2023/10/11 14:37:07;;;;;;;;;;;18.90;99.90;;;;;;5114232;28;20420;-78
2023/10/11 14:39:33;;;;;;;;;;;18.90;99.90;;;;;;5113654;28;19920;-78
2023/10/11 14:41:59;;;;;;;;;;;18.90;99.90;;;;;;5114026;28;19915;-77
2023/10/11 14:44:25;;;;;;;;;;;18.90;99.90;;;;;;5114285;28;19926;-78
2023/10/11 14:46:52;;;;;;;;;;;18.80;99.90;;;;;;5114020;28;19916;-77
2023/10/11 14:49:21;;;;;;;;;;;18.80;99.90;;;;;;5113494;28;19922;-77
2023/10/11 14:51:47;;;;;;;;;;;18.90;99.90;;;;;;5108236;28;19916;-78
2023/10/11 14:54:13;;;;;;;;;;;18.90;99.90;;;;;;5104861;28;20015;-77
2023/10/11 14:56:39;;;;;;;;;;;18.80;99.90;;;;;;5112726;28;20619;-78
2023/10/11 14:59:05;;;;;;;;;;;18.90;99.90;;;;;;5113201;28;19915;-78
2023/10/11 15:01:33;;;;;;;;;;;19.00;99.90;;;;;;5113067;28;19924;-79
2023/10/11 15:04:00;;;;;;;;;;;19.00;99.90;;;;;;5113641;28;19960;-79
2023/10/11 15:06:26;;;;;;;;;;;19.00;99.90;;;;;;5096068;28;20312;-77
2023/10/11 15:08:53;;;;;;;;;;;18.90;99.90;;;;;;5113499;28;19926;-78
2023/10/11 15:11:20;;;;;;;;;;;18.90;99.90;;;;;;5112972;28;19915;-77
2023/10/11 15:13:45;;;;;;;;;;;19.00;99.90;;;;;;5112952;28;20381;-78
2023/10/11 15:16:14;;;;;;;;;;;19.00;99.90;;;;;;5103381;28;19926;-78
2023/10/11 15:18:41;;;;;;;;;;;18.90;99.90;;;;;;5105420;28;19926;-78
2023/10/11 15:21:06;;;;;;;;;;;19.00;99.90;;;;;;5098908;28;19931;-78
2023/10/11 15:23:32;;;;;;;;;;;19.00;99.90;;;;;;5112105;28;19924;-78
2023/10/11 15:25:59;;;;;;;;;;;19.00;99.90;;;;;;5095362;28;19971;-78
2023/10/11 15:28:25;;;;;;;;;;;18.90;99.90;;;;;;5112178;28;19976;-78